首页
METAR-TAF:

METAR-TAF

机场 :

阿拉木图国际机场

阿拉木圖, 哈萨克斯坦

纬度: 43-14N, 经度: 076-56E, 海拔: 847米

当前天气观测

该预报发布于24分钟前的11:00 UTC
风速4节,风向北转西北,在西北转东北之间变化
温度 15°C
湿度 72%
气压 1012 hPa
能见度10公里或以上
多云层高于2700英尺, 积雨云.
阴天层高于10000英尺

METAR: UAAA 211100Z 33002MPS 270V020 9999 BKN027CB OVC100 15/10 Q1012 R88/65D NOSIG

时间: 17:24 (11:24 UTC)

预报

该预报发布于6小时和24分钟前的05:00 UTC
预报有效从21日的 06点(UTC)到 22日的 06点(UTC)
风速10节,风向东转东北
能见度10公里或以上
多云层高于2000英尺, 积雨云.
多云层高于10000英尺
短暂存在
从 21日的 07点(UTC)到 21日的 13点(UTC)
风速16节,风向西转西北,有时为29节阵风
雷暴
成为
从 21日的 13点(UTC)到 21日的 14点(UTC)
风速10节,风向西转西南
能見度: 3100
小阵雨, 轻雾
短暂存在
从 21日的 14点(UTC)到 22日的 02点(UTC)
风速10节,风向西,有时为19节阵风
能見度: 1500
多云层高于500英尺
阴天层高于1100英尺, 积雨云.
雷暴, 雨

TAF: UAAA 210500Z 2106/2206 06005MPS 9999 BKN020CB BKN100 TX19/2108Z TN10/2201Z TEMPO 2107/2113 30008G15MPS TS BECMG 2113/2114 24005MPS 3100 -SHRA BR TEMPO 2114/2202 28005G10MPS 1500 TSRA BKN005 OVC011CB

超过4000个机场的气象观测和天气预报(METAR&TAF报告)。

可查询的气象台以黄色和红色小点在地图上表示。

将鼠标移到小点上方,可查看气象台名称。

然后点击查看天气观测和预报。

如需切换地图:点击带黑十字的绿色按钮放大地图;点击带横线的绿色按钮缩小地图;或者点击绿色箭头查看邻近地区的地图。


METAR-TAF: